sensor_id;sensor_type;location;lat;lon;timestamp;temperature;humidity
51175;DHT22;37240;50.104;20.010;2023-07-29T00:00:22;22.40;99.90
51175;DHT22;37240;50.104;20.010;2023-07-29T00:05:23;22.40;99.90
51175;DHT22;37240;50.104;20.010;2023-07-29T00:10:23;22.30;99.90
51175;DHT22;37240;50.104;20.010;2023-07-29T00:15:24;22.30;99.90
51175;DHT22;37240;50.104;20.010;2023-07-29T00:20:24;22.20;99.90
51175;DHT22;37240;50.104;20.010;2023-07-29T00:25:25;22.20;99.90
51175;DHT22;37240;50.104;20.010;2023-07-29T00:30:26;22.20;99.90
51175;DHT22;37240;50.104;20.010;2023-07-29T00:35:26;22.10;99.90
51175;DHT22;37240;50.104;20.010;2023-07-29T00:40:28;22.10;99.90
51175;DHT22;37240;50.104;20.010;2023-07-29T00:45:29;22.10;99.90
51175;DHT22;37240;50.104;20.010;2023-07-29T00:50:31;22.00;99.90
51175;DHT22;37240;50.104;20.010;2023-07-29T00:55:32;22.00;99.90
51175;DHT22;37240;50.104;20.010;2023-07-29T01:00:33;21.90;99.90
51175;DHT22;37240;50.104;20.010;2023-07-29T01:05:54;21.80;99.90
51175;DHT22;37240;50.104;20.010;2023-07-29T01:16:53;21.80;99.90
51175;DHT22;37240;50.104;20.010;2023-07-29T01:21:56;21.70;99.90
51175;DHT22;37240;50.104;20.010;2023-07-29T01:26:57;21.70;99.90
51175;DHT22;37240;50.104;20.010;2023-07-29T01:32:11;21.70;99.90
51175;DHT22;37240;50.104;20.010;2023-07-29T01:37:19;21.70;99.90
51175;DHT22;37240;50.104;20.010;2023-07-29T01:42:23;21.70;99.90
51175;DHT22;37240;50.104;20.010;2023-07-29T01:47:25;21.60;99.90
51175;DHT22;37240;50.104;20.010;2023-07-29T01:52:25;21.60;99.90
51175;DHT22;37240;50.104;20.010;2023-07-29T01:57:26;21.60;99.90
51175;DHT22;37240;50.104;20.010;2023-07-29T02:02:26;21.60;99.90
51175;DHT22;37240;50.104;20.010;2023-07-29T02:07:27;21.60;99.90
51175;DHT22;37240;50.104;20.010;2023-07-29T02:12:27;21.60;99.90
51175;DHT22;37240;50.104;20.010;2023-07-29T02:17:28;21.60;99.90
51175;DHT22;37240;50.104;20.010;2023-07-29T02:22:28;21.50;99.90
51175;DHT22;37240;50.104;20.010;2023-07-29T02:27:29;21.50;99.90
51175;DHT22;37240;50.104;20.010;2023-07-29T02:32:30;21.60;99.90
51175;DHT22;37240;50.104;20.010;2023-07-29T02:37:30;21.60;99.90
51175;DHT22;37240;50.104;20.010;2023-07-29T02:42:31;21.50;99.90
51175;DHT22;37240;50.104;20.010;2023-07-29T02:47:31;21.50;99.90
51175;DHT22;37240;50.104;20.010;2023-07-29T02:52:32;21.60;99.90
51175;DHT22;37240;50.104;20.010;2023-07-29T02:57:32;21.60;99.90
51175;DHT22;37240;50.104;20.010;2023-07-29T03:02:33;21.60;99.90
51175;DHT22;37240;50.104;20.010;2023-07-29T03:07:33;21.70;99.90
51175;DHT22;37240;50.104;20.010;2023-07-29T03:12:34;21.70;99.90
51175;DHT22;37240;50.104;20.010;2023-07-29T03:17:35;21.70;99.90
51175;DHT22;37240;50.104;20.010;2023-07-29T03:22:35;21.90;99.90
51175;DHT22;37240;50.104;20.010;2023-07-29T03:27:36;22.20;99.90
51175;DHT22;37240;50.104;20.010;2023-07-29T03:32:43;22.40;99.90
51175;DHT22;37240;50.104;20.010;2023-07-29T03:37:43;22.40;99.90
51175;DHT22;37240;50.104;20.010;2023-07-29T03:42:44;22.40;99.90
51175;DHT22;37240;50.104;20.010;2023-07-29T03:47:44;22.50;99.90
51175;DHT22;37240;50.104;20.010;2023-07-29T03:52:45;22.50;99.90
51175;DHT22;37240;50.104;20.010;2023-07-29T03:57:46;22.60;99.90
51175;DHT22;37240;50.104;20.010;2023-07-29T04:02:46;22.70;99.90
51175;DHT22;37240;50.104;20.010;2023-07-29T04:07:57;22.80;99.90
51175;DHT22;37240;50.104;20.010;2023-07-29T04:12:57;22.90;99.90
51175;DHT22;37240;50.104;20.010;2023-07-29T04:17:58;22.90;99.80
51175;DHT22;37240;50.104;20.010;2023-07-29T04:22:58;22.80;99.80
51175;DHT22;37240;50.104;20.010;2023-07-29T04:27:59;22.90;99.70
51175;DHT22;37240;50.104;20.010;2023-07-29T04:33:00;23.10;99.50
51175;DHT22;37240;50.104;20.010;2023-07-29T04:38:00;23.30;99.40
51175;DHT22;37240;50.104;20.010;2023-07-29T04:43:01;23.80;98.60
51175;DHT22;37240;50.104;20.010;2023-07-29T04:48:02;23.90;98.00
51175;DHT22;37240;50.104;20.010;2023-07-29T04:53:02;24.00;97.90
51175;DHT22;37240;50.104;20.010;2023-07-29T04:58:03;24.40;97.60
51175;DHT22;37240;50.104;20.010;2023-07-29T05:03:03;25.50;96.20
51175;DHT22;37240;50.104;20.010;2023-07-29T05:08:04;26.00;93.90
51175;DHT22;37240;50.104;20.010;2023-07-29T05:13:04;26.10;93.40
51175;DHT22;37240;50.104;20.010;2023-07-29T05:18:05;26.80;92.80
51175;DHT22;37240;50.104;20.010;2023-07-29T05:23:05;27.60;90.90
51175;DHT22;37240;50.104;20.010;2023-07-29T05:28:06;28.40;90.10
51175;DHT22;37240;50.104;20.010;2023-07-29T05:33:06;29.10;85.30
51175;DHT22;37240;50.104;20.010;2023-07-29T05:38:07;29.60;83.00
51175;DHT22;37240;50.104;20.010;2023-07-29T05:43:07;30.00;79.20
51175;DHT22;37240;50.104;20.010;2023-07-29T05:48:08;30.20;76.80
51175;DHT22;37240;50.104;20.010;2023-07-29T05:53:08;30.30;76.60
51175;DHT22;37240;50.104;20.010;2023-07-29T05:58:09;30.60;74.70
51175;DHT22;37240;50.104;20.010;2023-07-29T06:03:09;30.90;73.60
51175;DHT22;37240;50.104;20.010;2023-07-29T06:08:10;31.50;71.20
51175;DHT22;37240;50.104;20.010;2023-07-29T06:13:11;32.20;67.80
51175;DHT22;37240;50.104;20.010;2023-07-29T06:18:11;32.90;64.80
51175;DHT22;37240;50.104;20.010;2023-07-29T06:23:12;33.90;62.10
51175;DHT22;37240;50.104;20.010;2023-07-29T06:28:12;35.00;58.00
51175;DHT22;37240;50.104;20.010;2023-07-29T06:33:13;36.00;55.00
51175;DHT22;37240;50.104;20.010;2023-07-29T06:38:13;36.60;52.80
51175;DHT22;37240;50.104;20.010;2023-07-29T06:43:14;37.10;51.30
51175;DHT22;37240;50.104;20.010;2023-07-29T06:48:14;37.00;50.40
51175;DHT22;37240;50.104;20.010;2023-07-29T06:53:15;36.90;50.00
51175;DHT22;37240;50.104;20.010;2023-07-29T06:58:16;36.60;50.10
51175;DHT22;37240;50.104;20.010;2023-07-29T07:03:16;36.20;50.50
51175;DHT22;37240;50.104;20.010;2023-07-29T07:08:17;35.80;51.60
51175;DHT22;37240;50.104;20.010;2023-07-29T07:13:17;35.50;52.10
51175;DHT22;37240;50.104;20.010;2023-07-29T07:18:18;35.50;51.80
51175;DHT22;37240;50.104;20.010;2023-07-29T07:23:18;35.40;51.90
51175;DHT22;37240;50.104;20.010;2023-07-29T07:28:19;35.30;51.90
51175;DHT22;37240;50.104;20.010;2023-07-29T07:33:19;35.20;52.30
51175;DHT22;37240;50.104;20.010;2023-07-29T07:38:20;35.30;52.90
51175;DHT22;37240;50.104;20.010;2023-07-29T07:43:21;35.30;52.70
51175;DHT22;37240;50.104;20.010;2023-07-29T07:48:21;35.50;52.40
51175;DHT22;37240;50.104;20.010;2023-07-29T07:53:22;35.80;52.10
51175;DHT22;37240;50.104;20.010;2023-07-29T07:58:22;36.00;50.70
51175;DHT22;37240;50.104;20.010;2023-07-29T08:03:23;36.00;50.90
51175;DHT22;37240;50.104;20.010;2023-07-29T08:08:24;35.80;51.20
51175;DHT22;37240;50.104;20.010;2023-07-29T08:13:25;35.50;51.90
51175;DHT22;37240;50.104;20.010;2023-07-29T08:18:25;35.50;51.70
51175;DHT22;37240;50.104;20.010;2023-07-29T08:23:26;35.60;51.20
51175;DHT22;37240;50.104;20.010;2023-07-29T08:28:35;35.80;51.80
51175;DHT22;37240;50.104;20.010;2023-07-29T08:33:36;36.00;49.50
51175;DHT22;37240;50.104;20.010;2023-07-29T08:38:36;36.20;49.70
51175;DHT22;37240;50.104;20.010;2023-07-29T08:43:39;36.30;47.60
51175;DHT22;37240;50.104;20.010;2023-07-29T08:48:43;36.10;47.90
51175;DHT22;37240;50.104;20.010;2023-07-29T08:53:44;36.30;46.90
51175;DHT22;37240;50.104;20.010;2023-07-29T08:58:45;36.50;46.20
51175;DHT22;37240;50.104;20.010;2023-07-29T09:03:46;36.60;46.00
51175;DHT22;37240;50.104;20.010;2023-07-29T09:08:49;36.40;46.60
51175;DHT22;37240;50.104;20.010;2023-07-29T09:13:50;36.20;47.00
51175;DHT22;37240;50.104;20.010;2023-07-29T09:18:51;36.20;46.90
51175;DHT22;37240;50.104;20.010;2023-07-29T09:23:52;36.10;46.50
51175;DHT22;37240;50.104;20.010;2023-07-29T09:28:57;36.20;46.70
51175;DHT22;37240;50.104;20.010;2023-07-29T09:34:03;36.30;45.90
51175;DHT22;37240;50.104;20.010;2023-07-29T09:39:11;36.40;45.50
51175;DHT22;37240;50.104;20.010;2023-07-29T09:44:12;36.40;45.70
51175;DHT22;37240;50.104;20.010;2023-07-29T09:49:12;36.20;46.70
51175;DHT22;37240;50.104;20.010;2023-07-29T09:54:13;35.90;46.90
51175;DHT22;37240;50.104;20.010;2023-07-29T09:59:19;35.60;48.00
51175;DHT22;37240;50.104;20.010;2023-07-29T10:04:20;35.30;48.20
51175;DHT22;37240;50.104;20.010;2023-07-29T10:09:21;35.10;48.60
51175;DHT22;37240;50.104;20.010;2023-07-29T10:14:23;35.00;48.40
51175;DHT22;37240;50.104;20.010;2023-07-29T10:19:25;34.90;48.40
51175;DHT22;37240;50.104;20.010;2023-07-29T10:24:30;34.70;49.20
51175;DHT22;37240;50.104;20.010;2023-07-29T10:29:32;34.60;48.70
51175;DHT22;37240;50.104;20.010;2023-07-29T10:34:32;34.50;48.10
51175;DHT22;37240;50.104;20.010;2023-07-29T10:39:40;34.30;48.70
51175;DHT22;37240;50.104;20.010;2023-07-29T10:44:50;34.30;49.70
51175;DHT22;37240;50.104;20.010;2023-07-29T10:49:53;34.20;49.10
51175;DHT22;37240;50.104;20.010;2023-07-29T10:54:54;34.10;50.00
51175;DHT22;37240;50.104;20.010;2023-07-29T10:59:55;34.10;49.90
51175;DHT22;37240;50.104;20.010;2023-07-29T11:04:57;34.00;49.40
51175;DHT22;37240;50.104;20.010;2023-07-29T11:10:00;33.80;50.00
51175;DHT22;37240;50.104;20.010;2023-07-29T11:15:24;33.60;50.30
51175;DHT22;37240;50.104;20.010;2023-07-29T11:20:32;33.40;50.80
51175;DHT22;37240;50.104;20.010;2023-07-29T11:25:32;33.30;52.00
51175;DHT22;37240;50.104;20.010;2023-07-29T11:30:33;33.20;52.70
51175;DHT22;37240;50.104;20.010;2023-07-29T11:35:34;33.10;53.70
51175;DHT22;37240;50.104;20.010;2023-07-29T11:40:34;33.10;53.00
51175;DHT22;37240;50.104;20.010;2023-07-29T11:45:35;33.10;52.00
51175;DHT22;37240;50.104;20.010;2023-07-29T11:50:35;33.10;51.70
51175;DHT22;37240;50.104;20.010;2023-07-29T11:55:36;33.00;52.60
51175;DHT22;37240;50.104;20.010;2023-07-29T12:00:37;33.00;53.30
51175;DHT22;37240;50.104;20.010;2023-07-29T12:05:38;33.00;53.80
51175;DHT22;37240;50.104;20.010;2023-07-29T12:10:39;32.80;54.70
51175;DHT22;37240;50.104;20.010;2023-07-29T12:15:40;32.60;56.20
51175;DHT22;37240;50.104;20.010;2023-07-29T12:20:41;32.30;56.20
51175;DHT22;37240;50.104;20.010;2023-07-29T12:25:42;32.00;57.00
51175;DHT22;37240;50.104;20.010;2023-07-29T12:30:43;31.70;58.20
51175;DHT22;37240;50.104;20.010;2023-07-29T12:35:45;31.60;58.70
51175;DHT22;37240;50.104;20.010;2023-07-29T12:40:45;31.50;57.90
51175;DHT22;37240;50.104;20.010;2023-07-29T12:45:48;31.50;57.80
51175;DHT22;37240;50.104;20.010;2023-07-29T12:50:49;31.50;58.40
51175;DHT22;37240;50.104;20.010;2023-07-29T12:55:49;31.50;56.60
51175;DHT22;37240;50.104;20.010;2023-07-29T13:00:50;31.60;57.50
51175;DHT22;37240;50.104;20.010;2023-07-29T13:05:52;31.60;57.90
51175;DHT22;37240;50.104;20.010;2023-07-29T13:10:52;31.60;58.00
51175;DHT22;37240;50.104;20.010;2023-07-29T13:15:53;31.60;58.50
51175;DHT22;37240;50.104;20.010;2023-07-29T13:20:54;31.70;58.80
51175;DHT22;37240;50.104;20.010;2023-07-29T13:25:55;31.70;59.20
51175;DHT22;37240;50.104;20.010;2023-07-29T13:30:55;31.60;59.00
51175;DHT22;37240;50.104;20.010;2023-07-29T13:35:56;31.80;59.50
51175;DHT22;37240;50.104;20.010;2023-07-29T13:40:56;31.80;59.30
51175;DHT22;37240;50.104;20.010;2023-07-29T13:45:57;31.80;59.10
51175;DHT22;37240;50.104;20.010;2023-07-29T13:50:57;31.70;59.00
51175;DHT22;37240;50.104;20.010;2023-07-29T13:55:58;31.60;57.80
51175;DHT22;37240;50.104;20.010;2023-07-29T14:00:58;31.60;58.00
51175;DHT22;37240;50.104;20.010;2023-07-29T14:05:59;31.60;58.20
51175;DHT22;37240;50.104;20.010;2023-07-29T14:10:59;31.60;58.80
51175;DHT22;37240;50.104;20.010;2023-07-29T14:16:03;31.70;58.40
51175;DHT22;37240;50.104;20.010;2023-07-29T14:21:04;31.70;56.90
51175;DHT22;37240;50.104;20.010;2023-07-29T14:26:04;31.70;56.50
51175;DHT22;37240;50.104;20.010;2023-07-29T14:31:05;31.60;57.30
51175;DHT22;37240;50.104;20.010;2023-07-29T14:36:06;31.50;57.00
51175;DHT22;37240;50.104;20.010;2023-07-29T14:41:06;31.30;57.60
51175;DHT22;37240;50.104;20.010;2023-07-29T14:46:07;31.30;59.20
51175;DHT22;37240;50.104;20.010;2023-07-29T14:51:07;30.90;60.50
51175;DHT22;37240;50.104;20.010;2023-07-29T14:56:08;30.20;63.50
51175;DHT22;37240;50.104;20.010;2023-07-29T15:01:08;29.60;67.30
51175;DHT22;37240;50.104;20.010;2023-07-29T15:06:09;29.20;68.50
51175;DHT22;37240;50.104;20.010;2023-07-29T15:11:10;28.90;68.70
51175;DHT22;37240;50.104;20.010;2023-07-29T15:16:10;28.90;69.50
51175;DHT22;37240;50.104;20.010;2023-07-29T15:21:11;28.90;70.80
51175;DHT22;37240;50.104;20.010;2023-07-29T15:26:11;29.20;71.80
51175;DHT22;37240;50.104;20.010;2023-07-29T15:31:15;29.40;72.00
51175;DHT22;37240;50.104;20.010;2023-07-29T15:36:15;29.40;73.20
51175;DHT22;37240;50.104;20.010;2023-07-29T15:41:16;29.30;73.50
51175;DHT22;37240;50.104;20.010;2023-07-29T15:46:17;29.10;72.10
51175;DHT22;37240;50.104;20.010;2023-07-29T15:51:17;28.80;73.50
51175;DHT22;37240;50.104;20.010;2023-07-29T15:56:18;28.70;74.20
51175;DHT22;37240;50.104;20.010;2023-07-29T16:01:19;28.70;72.80
51175;DHT22;37240;50.104;20.010;2023-07-29T16:06:20;28.60;71.50
51175;DHT22;37240;50.104;20.010;2023-07-29T16:11:21;28.80;71.00
51175;DHT22;37240;50.104;20.010;2023-07-29T16:16:23;28.80;70.50
51175;DHT22;37240;50.104;20.010;2023-07-29T16:21:24;28.80;69.90
51175;DHT22;37240;50.104;20.010;2023-07-29T16:26:24;28.70;69.90
51175;DHT22;37240;50.104;20.010;2023-07-29T16:31:25;28.70;70.10
51175;DHT22;37240;50.104;20.010;2023-07-29T16:36:25;28.70;70.80
51175;DHT22;37240;50.104;20.010;2023-07-29T16:41:26;28.60;71.20
51175;DHT22;37240;50.104;20.010;2023-07-29T16:46:26;28.60;70.90
51175;DHT22;37240;50.104;20.010;2023-07-29T16:51:27;28.50;71.50
51175;DHT22;37240;50.104;20.010;2023-07-29T16:56:27;28.50;72.10
51175;DHT22;37240;50.104;20.010;2023-07-29T17:01:28;28.40;72.50
51175;DHT22;37240;50.104;20.010;2023-07-29T17:06:28;28.40;74.40
51175;DHT22;37240;50.104;20.010;2023-07-29T17:11:29;28.20;74.40
51175;DHT22;37240;50.104;20.010;2023-07-29T17:16:30;28.10;75.30
51175;DHT22;37240;50.104;20.010;2023-07-29T17:21:30;28.10;76.40
51175;DHT22;37240;50.104;20.010;2023-07-29T17:26:31;28.00;76.70
51175;DHT22;37240;50.104;20.010;2023-07-29T17:31:31;28.00;76.90
51175;DHT22;37240;50.104;20.010;2023-07-29T17:36:32;28.00;77.50
51175;DHT22;37240;50.104;20.010;2023-07-29T17:41:32;27.80;77.40
51175;DHT22;37240;50.104;20.010;2023-07-29T17:46:33;27.80;77.90
51175;DHT22;37240;50.104;20.010;2023-07-29T17:51:33;27.70;77.50
51175;DHT22;37240;50.104;20.010;2023-07-29T17:56:34;27.60;77.70
51175;DHT22;37240;50.104;20.010;2023-07-29T18:01:34;27.50;78.10
51175;DHT22;37240;50.104;20.010;2023-07-29T18:06:35;27.40;78.70
51175;DHT22;37240;50.104;20.010;2023-07-29T18:11:36;27.30;80.00
51175;DHT22;37240;50.104;20.010;2023-07-29T18:16:36;27.20;79.40
51175;DHT22;37240;50.104;20.010;2023-07-29T18:21:37;27.20;80.10
51175;DHT22;37240;50.104;20.010;2023-07-29T18:26:37;27.10;80.60
51175;DHT22;37240;50.104;20.010;2023-07-29T18:31:38;27.00;81.30
51175;DHT22;37240;50.104;20.010;2023-07-29T18:36:38;27.00;81.80
51175;DHT22;37240;50.104;20.010;2023-07-29T18:41:39;27.00;82.10
51175;DHT22;37240;50.104;20.010;2023-07-29T18:46:39;26.90;82.90
51175;DHT22;37240;50.104;20.010;2023-07-29T18:51:40;26.90;83.60
51175;DHT22;37240;50.104;20.010;2023-07-29T18:56:40;26.80;84.10
51175;DHT22;37240;50.104;20.010;2023-07-29T19:01:41;26.70;84.60
51175;DHT22;37240;50.104;20.010;2023-07-29T19:06:42;26.60;85.30
51175;DHT22;37240;50.104;20.010;2023-07-29T19:11:42;26.60;86.00
51175;DHT22;37240;50.104;20.010;2023-07-29T19:16:43;26.50;86.80
51175;DHT22;37240;50.104;20.010;2023-07-29T19:21:43;26.50;87.30
51175;DHT22;37240;50.104;20.010;2023-07-29T19:26:44;26.50;87.80
51175;DHT22;37240;50.104;20.010;2023-07-29T19:31:45;26.50;88.50
51175;DHT22;37240;50.104;20.010;2023-07-29T19:36:45;26.40;89.20
51175;DHT22;37240;50.104;20.010;2023-07-29T19:41:46;26.40;89.80
51175;DHT22;37240;50.104;20.010;2023-07-29T19:46:46;26.30;90.00
51175;DHT22;37240;50.104;20.010;2023-07-29T19:51:47;26.30;90.10
51175;DHT22;37240;50.104;20.010;2023-07-29T19:56:48;26.20;90.30
51175;DHT22;37240;50.104;20.010;2023-07-29T20:01:48;26.20;90.50
51175;DHT22;37240;50.104;20.010;2023-07-29T20:06:49;26.10;90.60
51175;DHT22;37240;50.104;20.010;2023-07-29T20:11:49;26.10;90.90
51175;DHT22;37240;50.104;20.010;2023-07-29T20:16:50;26.00;90.90
51175;DHT22;37240;50.104;20.010;2023-07-29T20:21:50;26.00;91.10
51175;DHT22;37240;50.104;20.010;2023-07-29T20:26:51;25.80;91.30
51175;DHT22;37240;50.104;20.010;2023-07-29T20:31:51;25.70;91.60
51175;DHT22;37240;50.104;20.010;2023-07-29T20:36:52;25.60;91.80
51175;DHT22;37240;50.104;20.010;2023-07-29T20:41:52;25.60;91.90
51175;DHT22;37240;50.104;20.010;2023-07-29T20:46:53;25.60;91.90
51175;DHT22;37240;50.104;20.010;2023-07-29T20:51:53;25.60;91.90
51175;DHT22;37240;50.104;20.010;2023-07-29T20:56:54;25.60;92.00
51175;DHT22;37240;50.104;20.010;2023-07-29T21:01:55;25.60;92.30
51175;DHT22;37240;50.104;20.010;2023-07-29T21:06:55;25.50;92.50
51175;DHT22;37240;50.104;20.010;2023-07-29T21:11:56;25.50;92.80
51175;DHT22;37240;50.104;20.010;2023-07-29T21:16:56;25.40;93.10
51175;DHT22;37240;50.104;20.010;2023-07-29T21:21:57;25.20;93.40
51175;DHT22;37240;50.104;20.010;2023-07-29T21:26:57;25.20;93.30
51175;DHT22;37240;50.104;20.010;2023-07-29T21:31:58;25.00;92.90
51175;DHT22;37240;50.104;20.010;2023-07-29T21:36:58;24.90;93.00
51175;DHT22;37240;50.104;20.010;2023-07-29T21:41:59;24.80;93.00
51175;DHT22;37240;50.104;20.010;2023-07-29T21:46:59;24.80;92.80
51175;DHT22;37240;50.104;20.010;2023-07-29T21:52:00;24.80;92.80
51175;DHT22;37240;50.104;20.010;2023-07-29T21:57:01;24.70;92.90
51175;DHT22;37240;50.104;20.010;2023-07-29T22:02:01;24.50;93.00
51175;DHT22;37240;50.104;20.010;2023-07-29T22:07:02;24.50;92.80
51175;DHT22;37240;50.104;20.010;2023-07-29T22:12:03;24.50;92.60
51175;DHT22;37240;50.104;20.010;2023-07-29T22:17:04;24.50;92.60
51175;DHT22;37240;50.104;20.010;2023-07-29T22:22:04;24.50;92.50
51175;DHT22;37240;50.104;20.010;2023-07-29T22:27:05;24.40;92.50
51175;DHT22;37240;50.104;20.010;2023-07-29T22:32:06;24.30;92.60
51175;DHT22;37240;50.104;20.010;2023-07-29T22:37:06;24.30;92.80
51175;DHT22;37240;50.104;20.010;2023-07-29T22:42:07;24.30;92.90
51175;DHT22;37240;50.104;20.010;2023-07-29T22:47:07;24.20;93.00
51175;DHT22;37240;50.104;20.010;2023-07-29T22:52:08;24.20;93.30
51175;DHT22;37240;50.104;20.010;2023-07-29T22:57:09;24.10;93.40
51175;DHT22;37240;50.104;20.010;2023-07-29T23:02:09;24.00;93.50
51175;DHT22;37240;50.104;20.010;2023-07-29T23:07:10;24.00;93.70
51175;DHT22;37240;50.104;20.010;2023-07-29T23:12:10;23.90;94.00
51175;DHT22;37240;50.104;20.010;2023-07-29T23:17:11;23.80;94.10
51175;DHT22;37240;50.104;20.010;2023-07-29T23:22:11;23.90;94.10
51175;DHT22;37240;50.104;20.010;2023-07-29T23:27:12;23.90;94.10
51175;DHT22;37240;50.104;20.010;2023-07-29T23:32:12;23.90;94.20
51175;DHT22;37240;50.104;20.010;2023-07-29T23:37:13;23.90;94.40
51175;DHT22;37240;50.104;20.010;2023-07-29T23:42:13;23.90;94.50
51175;DHT22;37240;50.104;20.010;2023-07-29T23:47:14;23.90;94.60
51175;DHT22;37240;50.104;20.010;2023-07-29T23:52:14;23.80;94.80
51175;DHT22;37240;50.104;20.010;2023-07-29T23:57:15;23.80;95.00
